createdAt,value
2023-05-11T00:09:17.644Z,1012.93
2023-05-11T00:19:17.814Z,1012.81
2023-05-11T00:29:17.994Z,1012.83
2023-05-11T00:39:18.179Z,1012.82
2023-05-11T00:49:18.333Z,1012.73
2023-05-11T00:59:18.500Z,1012.84
2023-05-11T01:09:18.715Z,1012.84
2023-05-11T01:19:18.866Z,1012.80
2023-05-11T01:29:19.040Z,1012.71
2023-05-11T01:39:19.216Z,1012.74
2023-05-11T01:49:19.375Z,1012.70
2023-05-11T01:59:19.517Z,1012.73
2023-05-11T02:09:19.679Z,1012.68
2023-05-11T02:19:19.856Z,1012.69
2023-05-11T02:29:20.026Z,1012.79
2023-05-11T02:39:20.185Z,1012.69
2023-05-11T02:49:20.358Z,1012.64
2023-05-11T02:59:20.514Z,1012.53
2023-05-11T03:09:20.673Z,1012.58
2023-05-11T03:19:20.925Z,1012.59
2023-05-11T03:29:21.091Z,1012.60
2023-05-11T03:39:21.254Z,1012.55
2023-05-11T03:49:21.413Z,1012.44
2023-05-11T03:59:21.570Z,1012.45
2023-05-11T04:09:21.754Z,1012.49
2023-05-11T04:19:21.918Z,1012.35
2023-05-11T04:29:22.095Z,1012.45
2023-05-11T04:39:22.269Z,1012.31
2023-05-11T04:49:22.426Z,1012.37
2023-05-11T04:59:22.594Z,1012.35
2023-05-11T05:09:22.768Z,1012.42
2023-05-11T05:19:22.926Z,1012.46
2023-05-11T05:29:23.091Z,1012.49
2023-05-11T05:39:23.249Z,1012.53
2023-05-11T05:49:23.412Z,1012.48
2023-05-11T05:59:23.623Z,1012.38
2023-05-11T06:09:23.752Z,1012.45
2023-05-11T06:19:23.916Z,1012.43
2023-05-11T06:29:24.071Z,1012.34
2023-05-11T06:39:24.255Z,1012.41
2023-05-11T06:49:24.398Z,1012.40
2023-05-11T06:59:24.550Z,1012.38
2023-05-11T07:09:24.710Z,1012.38
2023-05-11T07:19:24.870Z,1012.47
2023-05-11T07:29:25.217Z,1012.46
2023-05-11T07:39:25.196Z,1012.49
2023-05-11T07:49:31.332Z,1012.49
2023-05-11T07:59:26.593Z,1012.40
2023-05-11T08:09:25.806Z,1012.34
2023-05-11T08:19:25.981Z,1012.16
2023-05-11T08:29:26.136Z,1012.11
2023-05-11T08:39:45.504Z,1012.04
2023-05-11T08:49:27.538Z,1012.04
2023-05-11T08:59:26.688Z,1011.96
2023-05-11T09:09:26.864Z,1012.05
2023-05-11T09:19:27.191Z,1012.07
2023-05-11T09:29:30.555Z,1011.96
2023-05-11T09:39:35.334Z,1011.95
2023-05-11T09:49:28.800Z,1011.79
2023-05-11T09:59:27.773Z,1011.77
2023-05-11T10:09:28.127Z,1011.70
2023-05-11T10:19:28.073Z,1011.79
2023-05-11T10:29:28.262Z,1011.81
2023-05-11T10:39:28.454Z,1011.63
2023-05-11T10:49:28.657Z,1011.53
2023-05-11T10:59:28.821Z,1011.43
2023-05-11T11:09:28.997Z,1011.42
2023-05-11T11:19:29.172Z,1011.27
2023-05-11T11:29:29.470Z,1011.14
2023-05-11T11:39:29.604Z,1010.99
2023-05-11T11:49:29.771Z,1010.96
2023-05-11T11:59:29.946Z,1010.91
2023-05-11T12:09:30.195Z,1010.73
2023-05-11T12:19:30.314Z,1010.74
2023-05-11T12:29:30.479Z,1010.64
2023-05-11T12:39:30.651Z,1010.52
2023-05-11T12:49:30.819Z,1010.57
2023-05-11T12:59:30.992Z,1010.54
2023-05-11T13:09:31.146Z,1010.45
2023-05-11T13:19:31.443Z,1010.44
2023-05-11T13:29:31.402Z,1010.32
2023-05-11T13:39:31.590Z,1010.23
2023-05-11T13:49:31.745Z,1010.23
2023-05-11T13:59:31.908Z,1010.16
2023-05-11T14:09:32.064Z,1010.09
2023-05-11T14:19:32.246Z,1010.12
2023-05-11T14:29:32.396Z,1010.27
2023-05-11T14:39:32.604Z,1010.27
2023-05-11T14:49:32.807Z,1010.28
2023-05-11T14:59:32.940Z,1010.37
2023-05-11T15:09:33.132Z,1010.43
2023-05-11T15:19:33.302Z,1010.47
2023-05-11T15:29:33.456Z,1010.47
2023-05-11T15:39:33.640Z,1010.43
2023-05-11T15:49:33.810Z,1010.38
2023-05-11T15:59:33.983Z,1010.17
2023-05-11T16:09:34.306Z,1010.20
2023-05-11T16:19:34.342Z,1010.13
2023-05-11T16:29:34.547Z,1010.06
2023-05-11T16:39:34.717Z,1010.14
2023-05-11T16:49:35.137Z,1010.24
2023-05-11T16:59:35.386Z,1010.26
2023-05-11T17:09:35.590Z,1010.29
2023-05-11T17:19:35.809Z,1010.28
2023-05-11T17:29:36.070Z,1010.32
2023-05-11T17:39:36.329Z,1010.36
2023-05-11T17:49:36.418Z,1010.41
2023-05-11T17:59:36.536Z,1010.38
2023-05-11T18:09:36.644Z,1010.35
2023-05-11T18:19:36.753Z,1010.42
2023-05-11T18:29:36.882Z,1010.40
2023-05-11T18:39:37.019Z,1010.49
2023-05-11T18:49:37.133Z,1010.52
2023-05-11T18:59:37.247Z,1010.51
2023-05-11T19:09:37.334Z,1010.57
2023-05-11T19:19:37.431Z,1010.61
2023-05-11T19:29:37.601Z,1010.72
2023-05-11T19:39:37.680Z,1010.78
2023-05-11T19:49:42.006Z,1010.80
2023-05-11T19:59:38.075Z,1010.87
2023-05-11T20:09:38.127Z,1011.03
2023-05-11T20:19:38.378Z,1011.08
2023-05-11T20:29:38.661Z,1011.05
2023-05-11T20:39:38.914Z,1010.99
2023-05-11T20:49:39.624Z,1010.94
2023-05-11T21:09:39.160Z,1010.90
2023-05-11T21:19:39.279Z,1010.86
2023-05-11T21:29:39.454Z,1010.88
2023-05-11T21:39:39.612Z,1010.92
2023-05-11T21:49:39.782Z,1010.85
2023-05-11T21:59:39.964Z,1010.84
2023-05-11T22:09:40.139Z,1010.94
2023-05-11T22:19:40.308Z,1010.99
2023-05-11T22:29:40.458Z,1010.94
2023-05-11T22:39:40.661Z,1010.99
2023-05-11T22:49:40.819Z,1010.99
2023-05-11T22:59:40.992Z,1011.03
2023-05-11T23:09:41.173Z,1011.02
2023-05-11T23:19:41.438Z,1011.04
2023-05-11T23:29:41.499Z,1010.98
2023-05-11T23:39:41.666Z,1010.84
2023-05-11T23:49:41.832Z,1010.80
2023-05-11T23:59:42.018Z,1010.72
